createdAt,value
2019-03-12T00:02:08.484Z,9.37
2019-03-12T00:07:12.466Z,8.77
2019-03-12T00:12:16.058Z,9.27
2019-03-12T00:17:19.646Z,8.20
2019-03-12T00:22:23.270Z,11.57
2019-03-12T00:27:27.193Z,13.93
2019-03-12T00:32:30.801Z,9.60
2019-03-12T00:37:34.377Z,11.60
2019-03-12T00:42:37.962Z,11.63
2019-03-12T00:47:41.553Z,9.13
2019-03-12T00:52:45.626Z,10.10
2019-03-12T00:57:49.285Z,10.87
2019-03-12T01:02:52.945Z,11.27
2019-03-12T01:07:56.538Z,8.97
2019-03-12T01:13:00.109Z,9.60
2019-03-12T01:18:04.438Z,13.47
2019-03-12T01:23:10.079Z,10.73
2019-03-12T01:28:13.801Z,10.37
2019-03-12T01:33:17.855Z,11.23
2019-03-12T01:38:21.759Z,9.33
2019-03-12T01:43:25.717Z,12.17
2019-03-12T01:48:29.615Z,8.30
2019-03-12T01:53:33.444Z,10.30
2019-03-12T01:58:37.493Z,11.70
2019-03-12T02:03:41.086Z,11.33
2019-03-12T02:08:44.677Z,9.17
2019-03-12T02:13:48.274Z,10.47
2019-03-12T02:18:51.864Z,10.70
2019-03-12T02:23:55.455Z,8.97
2019-03-12T02:28:59.447Z,9.50
2019-03-12T02:34:03.088Z,9.60
2019-03-12T02:39:07.827Z,11.20
2019-03-12T02:44:11.499Z,10.50
2019-03-12T02:49:15.466Z,14.33
2019-03-12T02:54:19.135Z,12.03
2019-03-12T02:59:22.737Z,10.23
2019-03-12T03:04:26.349Z,12.87
2019-03-12T03:09:30.049Z,10.83
2019-03-12T03:14:36.279Z,10.87
2019-03-12T03:19:39.951Z,12.97
2019-03-12T03:24:43.546Z,9.30
2019-03-12T03:29:47.142Z,9.60
2019-03-12T03:34:50.798Z,8.13
2019-03-12T03:39:54.490Z,11.73
2019-03-12T03:44:58.120Z,13.40
2019-03-12T03:50:01.848Z,12.83
2019-03-12T03:55:08.736Z,13.63
2019-03-12T04:00:18.035Z,14.80
2019-03-12T04:05:21.747Z,14.50
2019-03-12T04:10:25.355Z,12.47
2019-03-12T04:15:29.243Z,8.00
2019-03-12T04:20:32.998Z,9.87
2019-03-12T04:25:36.588Z,8.77
2019-03-12T04:30:40.243Z,11.40
2019-03-12T04:35:43.821Z,8.07
2019-03-12T04:40:47.417Z,12.37
2019-03-12T04:45:50.997Z,11.00
2019-03-12T04:50:54.582Z,9.23
2019-03-12T04:55:58.499Z,11.50
2019-03-12T05:01:02.430Z,12.07
2019-03-12T05:06:06.077Z,11.57
2019-03-12T05:11:09.661Z,14.90
2019-03-12T05:16:13.299Z,15.50
2019-03-12T05:21:16.912Z,11.90
2019-03-12T05:26:20.486Z,14.87
2019-03-12T05:31:24.113Z,9.77
2019-03-12T05:36:27.688Z,9.47
2019-03-12T05:41:31.285Z,12.87
2019-03-12T05:46:34.937Z,11.83
2019-03-12T05:51:38.953Z,16.53
2019-03-12T05:56:42.618Z,16.50
2019-03-12T06:01:46.853Z,11.70
2019-03-12T06:06:50.573Z,14.40
2019-03-12T06:11:54.161Z,16.83
2019-03-12T06:16:57.754Z,76.03
2019-03-12T06:22:01.361Z,48.63
2019-03-12T06:27:05.002Z,30.30
2019-03-12T06:32:10.302Z,53.37
2019-03-12T06:37:24.973Z,47.50
2019-03-12T06:42:30.209Z,40.50
2019-03-12T06:47:35.442Z,31.20
2019-03-12T06:52:52.882Z,23.57
2019-03-12T06:58:19.858Z,14.97
2019-03-12T07:03:34.325Z,17.32
2019-03-12T07:08:45.670Z,17.00
2019-03-12T07:13:57.117Z,19.47
2019-03-12T07:19:08.513Z,17.63
2019-03-12T07:24:30.143Z,16.35
2019-03-12T07:29:51.694Z,15.17
2019-03-12T07:34:56.924Z,20.43
2019-03-12T07:40:07.934Z,12.70
2019-03-12T07:45:19.340Z,17.10
2019-03-12T07:50:33.837Z,20.87
2019-03-12T07:55:41.874Z,18.50
2019-03-12T08:00:47.066Z,12.23
2019-03-12T08:06:08.929Z,10.77
2019-03-12T08:11:16.977Z,10.80
2019-03-12T08:16:37.328Z,12.60
2019-03-12T08:21:42.557Z,13.70
2019-03-12T08:26:47.781Z,13.37
2019-03-12T08:32:02.310Z,8.73
2019-03-12T08:37:13.657Z,12.00
2019-03-12T08:42:37.076Z,9.97
2019-03-12T08:47:45.213Z,11.18
2019-03-12T08:52:50.516Z,11.93
2019-03-12T08:58:12.266Z,11.80
2019-03-12T09:03:20.243Z,12.77
2019-03-12T09:08:28.320Z,12.20
2019-03-12T09:13:37.018Z,8.93
2019-03-12T09:18:44.982Z,8.70
2019-03-12T09:23:50.228Z,8.27
2019-03-12T09:28:55.861Z,10.23
2019-03-12T09:34:12.988Z,10.90
2019-03-12T09:39:27.517Z,11.27
2019-03-12T09:44:39.087Z,10.40
2019-03-12T09:49:53.436Z,10.10
2019-03-12T09:55:14.147Z,8.40
2019-03-12T10:00:19.620Z,9.33
2019-03-12T10:05:24.925Z,7.03
2019-03-12T10:10:30.219Z,5.60
2019-03-12T10:15:38.887Z,7.70
2019-03-12T10:20:56.506Z,7.30
2019-03-12T10:31:21.012Z,6.67
2019-03-12T10:36:31.021Z,6.47
2019-03-12T10:41:52.141Z,6.00
2019-03-12T10:47:00.086Z,5.20
2019-03-12T10:52:03.741Z,6.43
2019-03-12T10:57:07.342Z,8.07
2019-03-12T11:02:11.177Z,7.33
2019-03-12T11:11:57.883Z,6.20
2019-03-12T11:12:20.213Z,4.13
2019-03-12T11:17:23.884Z,7.00
2019-03-12T11:22:33.998Z,4.47
2019-03-12T11:27:37.727Z,5.90
2019-03-12T11:32:41.418Z,5.67
2019-03-12T11:37:45.073Z,6.73
2019-03-12T11:42:48.773Z,8.03
2019-03-12T11:47:52.816Z,6.40
2019-03-12T11:53:16.068Z,5.07
2019-03-12T11:58:19.758Z,6.10
2019-03-12T12:03:23.858Z,6.33
2019-03-12T12:08:27.939Z,6.87
2019-03-12T12:13:31.781Z,10.17
2019-03-12T12:18:35.355Z,9.63
2019-03-12T12:23:38.945Z,5.43
2019-03-12T12:28:42.657Z,4.67
2019-03-12T12:33:46.290Z,9.00
2019-03-12T12:38:50.012Z,8.50
2019-03-12T12:43:53.620Z,5.57
2019-03-12T12:48:57.594Z,7.27
2019-03-12T12:54:01.188Z,6.20
2019-03-12T12:59:04.920Z,6.87
2019-03-12T13:04:08.524Z,6.27
2019-03-12T13:09:12.780Z,5.17
2019-03-12T13:14:16.840Z,4.90
2019-03-12T13:19:20.877Z,6.60
2019-03-12T13:24:24.533Z,6.13
2019-03-12T13:29:28.760Z,6.73
2019-03-12T13:34:32.375Z,5.07
2019-03-12T13:39:36.314Z,7.50
2019-03-12T13:44:40.033Z,6.60
2019-03-12T13:49:43.709Z,5.80
2019-03-12T13:54:47.894Z,9.67
2019-03-12T13:59:51.609Z,5.63
2019-03-12T14:04:55.114Z,6.47
2019-03-12T14:09:58.705Z,6.53
2019-03-12T14:15:02.295Z,7.17
2019-03-12T14:20:08.966Z,5.60
2019-03-12T14:25:12.625Z,8.03
2019-03-12T14:30:16.799Z,6.67
2019-03-12T14:35:20.856Z,6.47
2019-03-12T14:40:24.703Z,9.17
2019-03-12T14:45:29.426Z,7.33
2019-03-12T14:50:34.172Z,8.87
2019-03-12T14:55:37.827Z,7.20
2019-03-12T15:00:41.549Z,6.20
2019-03-12T15:05:45.207Z,5.70
2019-03-12T15:10:48.865Z,5.20
2019-03-12T15:15:54.898Z,4.77
2019-03-12T15:20:58.780Z,8.03
2019-03-12T15:26:06.196Z,8.43
2019-03-12T15:31:09.645Z,5.83
2019-03-12T15:36:13.553Z,5.87
2019-03-12T15:41:17.610Z,9.10
2019-03-12T15:46:21.268Z,13.83
2019-03-12T15:51:24.953Z,8.47
2019-03-12T15:56:28.605Z,8.63
2019-03-12T16:01:32.270Z,5.93
2019-03-12T16:06:35.917Z,5.53
2019-03-12T16:11:39.623Z,7.20
2019-03-12T16:16:43.297Z,6.70
2019-03-12T16:21:46.939Z,8.53
2019-03-12T16:26:50.622Z,10.07
2019-03-12T16:31:54.193Z,7.50
2019-03-12T16:36:58.310Z,6.60
2019-03-12T16:42:03.562Z,6.77
2019-03-12T16:47:07.245Z,10.40
2019-03-12T16:52:10.828Z,5.57
2019-03-12T16:57:14.805Z,6.93
2019-03-12T17:02:18.878Z,7.93
2019-03-12T17:07:22.473Z,7.80
2019-03-12T17:12:26.085Z,8.03
2019-03-12T17:17:31.554Z,8.03
2019-03-12T17:22:37.183Z,11.03
2019-03-12T17:27:41.066Z,9.80
2019-03-12T17:32:47.416Z,10.70
2019-03-12T17:37:51.438Z,8.63
2019-03-12T17:42:55.240Z,7.15
2019-03-12T17:47:59.388Z,7.90
2019-03-12T17:53:05.058Z,7.70
2019-03-12T17:58:08.782Z,5.63
2019-03-12T18:03:12.897Z,6.27
2019-03-12T18:08:16.552Z,6.33
2019-03-12T18:13:20.295Z,5.93
2019-03-12T18:18:23.993Z,7.77
2019-03-12T18:23:27.597Z,8.07
2019-03-12T18:28:31.187Z,5.63
2019-03-12T18:33:34.843Z,6.87
2019-03-12T18:38:38.840Z,16.90
2019-03-12T18:43:42.522Z,9.67
2019-03-12T18:48:46.205Z,8.00
2019-03-12T18:53:49.906Z,5.30
2019-03-12T18:58:53.547Z,6.13
2019-03-12T19:03:57.583Z,5.67
2019-03-12T19:09:01.304Z,4.83
2019-03-12T19:14:05.224Z,5.90
2019-03-12T19:19:09.438Z,5.53
2019-03-12T19:24:13.170Z,4.67
2019-03-12T19:29:16.906Z,5.43
2019-03-12T19:34:22.466Z,4.53
2019-03-12T19:39:26.512Z,6.07
2019-03-12T19:44:30.166Z,6.77
2019-03-12T19:49:33.900Z,4.77
2019-03-12T19:54:37.503Z,5.23
2019-03-12T19:59:41.078Z,4.70
2019-03-12T20:04:47.383Z,5.10
2019-03-12T20:09:53.926Z,5.53
2019-03-12T20:15:26.478Z,4.50
2019-03-12T20:21:21.344Z,4.57
2019-03-12T20:26:44.614Z,5.00
2019-03-12T20:31:54.104Z,4.77
2019-03-12T20:37:23.414Z,5.77
2019-03-12T20:43:03.426Z,4.87
2019-03-12T20:48:25.368Z,9.40
2019-03-12T20:53:57.925Z,11.67
2019-03-12T20:59:22.742Z,6.70
2019-03-12T21:04:48.548Z,7.17
2019-03-12T21:10:09.546Z,7.63
2019-03-12T21:15:34.447Z,6.23
2019-03-12T21:20:41.551Z,8.47
2019-03-12T21:26:20.385Z,6.07
2019-03-12T21:31:24.680Z,7.50
2019-03-12T21:36:30.916Z,7.47
2019-03-12T21:41:34.038Z,7.80
2019-03-12T21:46:38.182Z,7.17
2019-03-12T21:51:41.930Z,9.50
2019-03-12T21:56:45.997Z,11.03
2019-03-12T22:01:49.760Z,7.97
2019-03-12T22:06:53.480Z,9.10
2019-03-12T22:11:57.439Z,8.20
2019-03-12T22:17:02.060Z,6.53
2019-03-12T22:22:07.545Z,7.87
2019-03-12T22:27:11.149Z,7.30
2019-03-12T22:32:14.800Z,8.87
2019-03-12T22:37:18.440Z,6.87
2019-03-12T22:42:22.346Z,6.30
2019-03-12T22:47:26.010Z,7.57
2019-03-12T22:52:29.596Z,5.67
2019-03-12T22:57:33.177Z,7.10
2019-03-12T23:02:36.770Z,8.23
2019-03-12T23:07:40.445Z,8.80
2019-03-12T23:12:44.099Z,8.63
2019-03-12T23:17:47.914Z,7.20
2019-03-12T23:22:52.386Z,7.57
2019-03-12T23:27:56.235Z,7.60
2019-03-12T23:33:00.261Z,6.73
2019-03-12T23:38:03.923Z,5.90
2019-03-12T23:43:07.519Z,6.87
2019-03-12T23:48:11.098Z,7.03
2019-03-12T23:53:14.744Z,5.37
2019-03-12T23:58:18.392Z,8.13
